aviador You're here:

KNSE Decoded Metar

MILTON in FL, USA
Report Time2017-09-23 19:56:00
UTC Time2017-09-23 20:08:29
Flight Rules vfr VFR
Wind060° at 07 kt
W.Decomp.*RWY 05: 6.8 kt HW 1.5 kt RCW
RWY 14: 1.5 kt HW 6.8 kt LCW
W.Rank060° ranks 11
Current wind is above 060° avg. (5.4)
Visibility9999 m
Phenomena:N/A
Clouds:N/A
Expected CloudBase > 4,800 ft AGL from Temp-Dew spread
CeilingNone
Temp31°C (ISA +16)
Dew Point19°C (49% RH)
Heat Index32.4°C
QNH1013 hPa
Density Alt2,365 ft
Elevation200 ft
Report Wrong Elevation
Raw Report
KNSE 231956Z AUTO 06007KT 10SM CLR 31/19 A2992 RMK AO2 SLP118
T03060189 $=

Extra information for KNSE:More info

Metar Taf Metar & Taf Last 4 Metars F.Rules Stats Wind Profile Meteogram Temp Stats Airport Information Weather charts Add Link Nearby VenuesMetar ALERT Operation Metar Decoded Social comments

AIRNAV info for KNSE